createdAt,value
2022-08-23T00:02:45.525Z,2.80
2022-08-23T00:05:32.762Z,2.83
2022-08-23T00:08:19.678Z,2.55
2022-08-23T00:11:23.286Z,2.67
2022-08-23T00:14:14.174Z,2.60
2022-08-23T00:17:01.628Z,3.00
2022-08-23T00:19:48.599Z,2.50
2022-08-23T00:22:37.271Z,2.85
2022-08-23T00:25:24.240Z,3.10
2022-08-23T00:28:14.982Z,2.85
2022-08-23T00:31:02.684Z,2.90
2022-08-23T00:33:49.625Z,2.70
2022-08-23T00:36:36.624Z,2.75
2022-08-23T00:39:23.619Z,2.60
2022-08-23T00:42:48.257Z,3.08
2022-08-23T00:46:10.231Z,3.00
2022-08-23T00:48:58.004Z,2.90
2022-08-23T00:52:22.918Z,2.95
2022-08-23T00:55:10.004Z,2.70
2022-08-23T00:57:59.044Z,2.70
2022-08-23T01:00:47.843Z,3.22
2022-08-23T01:03:38.497Z,3.33
2022-08-23T01:06:44.067Z,3.05
2022-08-23T01:09:31.056Z,2.78
2022-08-23T01:12:33.296Z,3.25
2022-08-23T01:15:26.179Z,3.10
2022-08-23T01:18:16.771Z,2.90
2022-08-23T01:21:29.988Z,2.92
2022-08-23T01:24:24.124Z,3.53
2022-08-23T01:27:26.017Z,2.75
2022-08-23T01:30:16.318Z,3.05
2022-08-23T01:33:06.939Z,2.78
2022-08-23T01:35:56.991Z,2.70
2022-08-23T01:38:43.935Z,2.85
2022-08-23T01:41:31.319Z,3.00
2022-08-23T01:44:18.656Z,2.90
2022-08-23T01:47:06.542Z,2.72
2022-08-23T01:49:53.878Z,3.10
2022-08-23T01:52:46.569Z,2.85
2022-08-23T01:55:35.020Z,2.70
2022-08-23T01:58:22.246Z,2.97
2022-08-23T02:01:09.196Z,3.13
2022-08-23T02:04:00.751Z,3.30
2022-08-23T02:06:51.995Z,3.50
2022-08-23T02:09:39.107Z,3.05
2022-08-23T02:12:27.284Z,2.85
2022-08-23T02:15:16.225Z,3.00
2022-08-23T02:18:03.414Z,2.85
2022-08-23T02:20:52.492Z,3.33
2022-08-23T02:23:39.435Z,3.30
2022-08-23T02:26:31.104Z,3.38
2022-08-23T02:29:21.654Z,2.97
2022-08-23T02:32:12.690Z,2.92
2022-08-23T02:35:04.912Z,3.20
2022-08-23T02:37:52.910Z,3.33
2022-08-23T02:40:40.832Z,3.38
2022-08-23T02:43:27.818Z,3.33
2022-08-23T02:46:14.830Z,3.50
2022-08-23T02:49:01.869Z,3.67
2022-08-23T02:51:48.868Z,3.30
2022-08-23T02:54:36.141Z,3.83
2022-08-23T02:57:23.115Z,3.47
2022-08-23T03:00:12.316Z,3.40
2022-08-23T03:02:59.276Z,3.10
2022-08-23T03:05:46.243Z,3.05
2022-08-23T03:08:33.216Z,3.08
2022-08-23T03:11:21.946Z,3.35
2022-08-23T03:14:08.947Z,3.67
2022-08-23T03:16:58.405Z,3.38
2022-08-23T03:19:45.989Z,3.33
2022-08-23T03:22:33.430Z,3.40
2022-08-23T03:25:20.385Z,3.20
2022-08-23T03:28:07.886Z,3.67
2022-08-23T03:30:55.818Z,3.00
2022-08-23T03:33:43.450Z,2.75
2022-08-23T03:36:30.718Z,2.85
2022-08-23T03:39:17.694Z,2.90
2022-08-23T03:42:05.010Z,3.05
2022-08-23T03:44:56.909Z,3.25
2022-08-23T03:47:49.547Z,2.63
2022-08-23T03:50:36.803Z,3.22
2022-08-23T03:53:24.096Z,3.45
2022-08-23T03:56:11.071Z,3.58
2022-08-23T03:59:00.937Z,3.35
2022-08-23T04:01:48.619Z,2.95
2022-08-23T04:04:36.041Z,3.20
2022-08-23T04:07:23.507Z,3.22
2022-08-23T04:10:13.769Z,3.40
2022-08-23T04:13:00.797Z,3.70
2022-08-23T04:15:49.928Z,3.72
2022-08-23T04:18:36.974Z,3.30
2022-08-23T04:21:24.438Z,3.10
2022-08-23T04:24:11.748Z,3.60
2022-08-23T04:26:58.673Z,3.40
2022-08-23T04:29:45.632Z,3.45
2022-08-23T04:32:32.599Z,3.67
2022-08-23T04:35:21.294Z,3.60
2022-08-23T04:38:24.467Z,3.60
2022-08-23T04:41:30.970Z,3.58
2022-08-23T04:44:18.178Z,3.50
2022-08-23T04:47:05.321Z,3.03
2022-08-23T04:49:52.309Z,3.20
2022-08-23T04:52:39.358Z,3.00
2022-08-23T04:55:26.362Z,3.70
2022-08-23T04:58:14.301Z,3.42
2022-08-23T05:01:03.506Z,3.03
2022-08-23T05:03:50.529Z,3.60
2022-08-23T05:06:38.389Z,3.80
2022-08-23T05:09:25.338Z,3.30
2022-08-23T05:12:12.314Z,3.70
2022-08-23T05:14:59.753Z,3.40
2022-08-23T05:17:46.782Z,3.38
2022-08-23T05:20:34.377Z,3.25
2022-08-23T05:23:22.288Z,3.42
2022-08-23T05:26:16.929Z,3.55
2022-08-23T05:29:05.086Z,3.17
2022-08-23T05:31:52.172Z,3.38
2022-08-23T05:34:39.220Z,2.97
2022-08-23T05:37:26.180Z,3.20
2022-08-23T05:40:14.372Z,3.05
2022-08-23T05:43:01.408Z,3.45
2022-08-23T05:45:58.582Z,3.40
2022-08-23T05:48:48.098Z,3.30
2022-08-23T05:51:35.764Z,3.08
2022-08-23T05:54:22.739Z,3.10
2022-08-23T05:57:10.482Z,3.35
2022-08-23T05:59:57.523Z,2.72
2022-08-23T06:02:44.917Z,3.03
2022-08-23T06:05:31.842Z,3.05
2022-08-23T06:08:18.840Z,3.08
2022-08-23T06:11:15.788Z,3.10
2022-08-23T06:14:05.411Z,3.63
2022-08-23T06:16:55.764Z,3.15
2022-08-23T06:19:43.277Z,3.00
2022-08-23T06:22:30.470Z,2.97
2022-08-23T06:25:17.502Z,2.70
2022-08-23T06:28:04.481Z,2.88
2022-08-23T06:30:55.244Z,3.00
2022-08-23T06:33:43.724Z,2.80
2022-08-23T06:36:49.925Z,2.70
2022-08-23T06:39:38.321Z,2.78
2022-08-23T06:42:40.996Z,2.80
2022-08-23T06:45:34.791Z,2.80
2022-08-23T06:48:22.334Z,2.47
2022-08-23T06:51:14.722Z,2.50
2022-08-23T06:54:05.641Z,2.80
2022-08-23T06:56:53.969Z,2.75
2022-08-23T06:59:40.980Z,2.40
2022-08-23T07:02:28.054Z,2.22
2022-08-23T07:05:15.163Z,2.30
2022-08-23T07:08:02.173Z,2.50
2022-08-23T07:10:49.148Z,2.20
2022-08-23T07:13:36.149Z,1.92
2022-08-23T07:16:23.259Z,2.33
2022-08-23T07:19:13.659Z,2.40
2022-08-23T07:22:05.506Z,2.35
2022-08-23T07:24:52.881Z,2.40
2022-08-23T07:27:39.919Z,2.60
2022-08-23T07:30:27.433Z,2.15
2022-08-23T07:33:14.494Z,2.15
2022-08-23T07:36:01.848Z,2.10
2022-08-23T07:38:51.518Z,2.00
2022-08-23T07:41:39.268Z,2.20
2022-08-23T07:44:27.340Z,2.40
2022-08-23T07:47:14.585Z,2.17
2022-08-23T07:50:01.734Z,2.60
2022-08-23T07:52:49.280Z,2.28
2022-08-23T07:55:40.008Z,2.00
2022-08-23T07:58:27.021Z,2.30
2022-08-23T08:01:16.448Z,2.20
2022-08-23T08:04:08.124Z,2.40
2022-08-23T08:07:17.596Z,2.13
2022-08-23T08:10:02.487Z,2.30
2022-08-23T08:12:49.992Z,2.53
2022-08-23T08:15:42.935Z,2.40
2022-08-23T08:18:30.777Z,2.00
2022-08-23T08:21:18.860Z,2.42
2022-08-23T08:24:07.180Z,2.38
2022-08-23T08:26:54.270Z,2.30
2022-08-23T08:29:43.790Z,2.65
2022-08-23T08:32:31.041Z,2.60
2022-08-23T08:35:19.035Z,2.67
2022-08-23T08:38:06.593Z,2.50
2022-08-23T08:41:18.959Z,2.30
2022-08-23T08:44:24.858Z,2.47
2022-08-23T08:47:21.904Z,2.67
2022-08-23T08:50:28.436Z,2.47
2022-08-23T08:53:25.578Z,2.30
2022-08-23T08:56:23.565Z,2.53
2022-08-23T08:59:16.118Z,2.60
2022-08-23T09:02:04.922Z,2.15
2022-08-23T09:04:54.484Z,2.30
2022-08-23T09:08:13.409Z,2.60
2022-08-23T09:11:22.787Z,2.30
2022-08-23T09:14:34.054Z,1.95
2022-08-23T09:17:32.263Z,2.08
2022-08-23T09:20:21.522Z,2.20
2022-08-23T09:23:30.263Z,2.10
2022-08-23T09:26:30.278Z,1.98
2022-08-23T09:29:25.188Z,1.88
2022-08-23T09:32:44.012Z,1.95
2022-08-23T09:35:30.968Z,2.00
2022-08-23T09:38:20.814Z,2.00
2022-08-23T09:41:22.502Z,2.17
2022-08-23T09:44:13.592Z,2.20
2022-08-23T09:47:08.881Z,2.15
2022-08-23T09:49:56.209Z,2.10
2022-08-23T09:52:45.885Z,1.88
2022-08-23T09:55:35.273Z,2.30
2022-08-23T09:58:26.166Z,2.30
2022-08-23T10:01:27.360Z,2.05
2022-08-23T10:04:29.999Z,2.50
2022-08-23T10:07:42.820Z,1.85
2022-08-23T10:10:51.631Z,2.55
2022-08-23T10:13:41.677Z,2.33
2022-08-23T10:16:55.961Z,2.38
2022-08-23T10:20:13.688Z,2.25
2022-08-23T10:23:28.435Z,2.17
2022-08-23T10:26:35.354Z,2.05
2022-08-23T10:29:39.053Z,1.75
2022-08-23T10:32:54.148Z,2.30
2022-08-23T10:36:04.169Z,1.83
2022-08-23T10:38:58.207Z,1.90
2022-08-23T10:41:57.356Z,2.25
2022-08-23T10:45:05.149Z,1.90
2022-08-23T10:48:10.966Z,1.90
2022-08-23T10:51:04.499Z,1.88
2022-08-23T10:54:07.676Z,2.20
2022-08-23T10:56:58.413Z,1.90
2022-08-23T10:59:49.600Z,2.03
2022-08-23T11:03:04.886Z,1.90
2022-08-23T11:06:25.643Z,2.05
2022-08-23T11:09:22.764Z,2.00
2022-08-23T11:12:29.036Z,2.10
2022-08-23T11:15:45.223Z,1.70
2022-08-23T11:18:49.382Z,1.75
2022-08-23T11:21:47.879Z,1.90
2022-08-23T11:24:51.968Z,2.30
2022-08-23T11:27:41.317Z,1.85
2022-08-23T11:30:46.410Z,2.00
2022-08-23T11:33:42.243Z,1.98
2022-08-23T11:36:31.330Z,2.17
2022-08-23T11:39:25.259Z,2.05
2022-08-23T11:42:18.230Z,1.95
2022-08-23T11:45:44.061Z,2.08
2022-08-23T11:48:43.570Z,2.10
2022-08-23T11:51:52.360Z,1.70
2022-08-23T11:54:51.935Z,2.00
2022-08-23T11:57:57.920Z,2.10
2022-08-23T12:01:07.702Z,2.30
2022-08-23T12:04:35.994Z,2.10
2022-08-23T12:07:48.926Z,2.08
2022-08-23T12:10:41.958Z,2.03
2022-08-23T12:13:43.621Z,2.20
2022-08-23T12:16:34.768Z,2.45
2022-08-23T12:19:40.375Z,2.50
2022-08-23T12:22:56.393Z,2.13
2022-08-23T12:25:43.749Z,1.90
2022-08-23T12:28:42.210Z,2.10
2022-08-23T12:31:55.892Z,2.05
2022-08-23T12:34:59.442Z,2.17
2022-08-23T12:37:57.003Z,1.90
2022-08-23T12:40:48.501Z,2.40
2022-08-23T12:43:35.791Z,2.33
2022-08-23T12:46:31.816Z,1.85
2022-08-23T12:49:32.159Z,2.17
2022-08-23T12:52:28.957Z,1.95
2022-08-23T12:55:19.222Z,2.08
2022-08-23T12:58:07.743Z,2.83
2022-08-23T13:00:57.979Z,2.13
2022-08-23T13:03:49.972Z,2.22
2022-08-23T13:06:49.528Z,2.00
2022-08-23T13:09:39.818Z,2.10
2022-08-23T13:12:27.712Z,2.30
2022-08-23T13:15:42.481Z,1.90
2022-08-23T13:18:38.856Z,2.10
2022-08-23T13:21:37.521Z,2.20
2022-08-23T13:24:38.638Z,2.08
2022-08-23T13:27:36.532Z,1.92
2022-08-23T13:30:31.282Z,2.13
2022-08-23T13:33:19.844Z,2.13
2022-08-23T13:36:19.832Z,2.05
2022-08-23T13:39:08.625Z,2.20
2022-08-23T13:41:55.761Z,2.17
2022-08-23T13:44:43.700Z,2.00
2022-08-23T13:47:31.871Z,1.85
2022-08-23T13:50:31.123Z,2.00
2022-08-23T13:53:18.579Z,2.97
2022-08-23T13:56:05.820Z,2.00
2022-08-23T13:59:05.384Z,2.28
2022-08-23T14:01:53.370Z,2.15
2022-08-23T14:04:41.063Z,1.88
2022-08-23T14:07:28.314Z,2.25
2022-08-23T14:10:15.605Z,2.13
2022-08-23T14:13:08.059Z,1.85
2022-08-23T14:19:17.842Z,2.00
2022-08-23T14:22:19.744Z,1.95
2022-08-23T14:25:07.946Z,1.95
2022-08-23T14:27:55.071Z,2.05
2022-08-23T14:30:42.173Z,1.90
2022-08-23T14:33:29.127Z,2.25
2022-08-23T14:36:16.462Z,2.00
2022-08-23T14:39:06.262Z,1.95
2022-08-23T14:41:53.382Z,4.57
2022-08-23T14:44:40.395Z,2.38
2022-08-23T14:47:27.421Z,2.00
2022-08-23T14:50:15.041Z,2.00
2022-08-23T14:53:03.869Z,1.95
2022-08-23T14:56:12.365Z,1.92
2022-08-23T14:59:00.702Z,2.20
2022-08-23T15:01:49.202Z,1.90
2022-08-23T15:04:36.234Z,1.90
2022-08-23T15:07:23.411Z,1.95
2022-08-23T15:10:49.564Z,1.80
2022-08-23T15:13:26.111Z,2.30
2022-08-23T15:16:18.937Z,1.98
2022-08-23T15:19:06.615Z,2.20
2022-08-23T15:21:53.602Z,2.40
2022-08-23T15:24:40.632Z,1.98
2022-08-23T15:27:27.820Z,2.17
2022-08-23T15:30:15.993Z,2.00
2022-08-23T15:33:03.835Z,2.30
2022-08-23T15:35:51.987Z,2.35
2022-08-23T15:38:39.945Z,2.03
2022-08-23T15:41:26.910Z,2.28
2022-08-23T15:44:13.905Z,1.90
2022-08-23T15:47:02.605Z,2.30
2022-08-23T15:49:49.962Z,2.15
2022-08-23T15:52:37.067Z,1.90
2022-08-23T15:55:27.944Z,2.10
2022-08-23T15:58:21.784Z,1.88
2022-08-23T16:01:10.101Z,2.05
2022-08-23T16:03:57.570Z,2.15
2022-08-23T16:06:45.136Z,1.92
2022-08-23T16:09:34.136Z,1.85
2022-08-23T16:12:21.081Z,1.98
2022-08-23T16:15:08.989Z,2.15
2022-08-23T16:17:55.967Z,2.05
2022-08-23T16:20:43.904Z,1.90
2022-08-23T16:23:30.981Z,2.20
2022-08-23T16:26:22.272Z,2.22
2022-08-23T16:29:13.238Z,2.10
2022-08-23T16:32:00.909Z,1.90
2022-08-23T16:34:48.037Z,1.80
2022-08-23T16:37:36.108Z,2.10
2022-08-23T16:40:23.095Z,2.22
2022-08-23T16:43:10.098Z,1.90
2022-08-23T16:45:57.161Z,2.33
2022-08-23T16:48:45.031Z,2.20
2022-08-23T16:51:32.025Z,2.08
2022-08-23T16:54:19.715Z,2.20
2022-08-23T16:57:06.908Z,2.08
2022-08-23T16:59:53.847Z,1.95
2022-08-23T17:02:41.892Z,2.10
2022-08-23T17:05:29.661Z,2.22
2022-08-23T17:08:17.040Z,1.95
2022-08-23T17:11:10.227Z,1.95
2022-08-23T17:13:57.576Z,2.13
2022-08-23T17:16:52.296Z,2.03
2022-08-23T17:19:40.507Z,2.08
2022-08-23T17:22:27.627Z,2.60
2022-08-23T17:25:15.394Z,1.92
2022-08-23T17:28:03.298Z,2.33
2022-08-23T17:30:50.346Z,2.00
2022-08-23T17:33:37.456Z,2.00
2022-08-23T17:36:38.864Z,2.00
2022-08-23T17:39:29.129Z,2.00
2022-08-23T17:42:17.513Z,2.03
2022-08-23T17:45:06.731Z,2.38
2022-08-23T17:47:54.021Z,2.00
2022-08-23T17:50:41.975Z,2.22
2022-08-23T17:53:29.097Z,2.10
2022-08-23T17:56:16.059Z,1.75
2022-08-23T17:59:03.649Z,2.08
2022-08-23T18:01:50.842Z,1.70
2022-08-23T18:04:38.045Z,1.85
2022-08-23T18:07:25.011Z,1.90
2022-08-23T18:10:13.642Z,2.00
2022-08-23T18:13:00.825Z,1.65
2022-08-23T18:15:47.809Z,2.00
2022-08-23T18:18:37.894Z,2.08
2022-08-23T18:21:25.064Z,1.83
2022-08-23T18:24:12.087Z,1.90
2022-08-23T18:27:21.394Z,2.20
2022-08-23T18:30:10.034Z,1.90
2022-08-23T18:32:57.675Z,1.85
2022-08-23T18:35:45.362Z,2.13
2022-08-23T18:38:32.270Z,1.98
2022-08-23T18:41:19.781Z,2.00
2022-08-23T18:44:07.479Z,1.90
2022-08-23T18:46:54.487Z,1.92
2022-08-23T18:49:42.185Z,1.75
2022-08-23T18:52:30.961Z,1.80
2022-08-23T18:55:20.066Z,2.25
2022-08-23T18:58:08.029Z,2.00
2022-08-23T19:00:55.082Z,2.00
2022-08-23T19:03:42.087Z,2.08
2022-08-23T19:06:30.253Z,2.00
2022-08-23T19:09:17.368Z,1.80
2022-08-23T19:12:06.465Z,2.40
2022-08-23T19:14:53.418Z,1.77
2022-08-23T19:17:40.451Z,1.85
2022-08-23T19:20:28.085Z,1.88
2022-08-23T19:23:15.058Z,2.08
2022-08-23T19:26:03.557Z,1.80
2022-08-23T19:28:52.695Z,2.15
2022-08-23T19:31:45.258Z,1.83
2022-08-23T19:34:32.320Z,1.80
2022-08-23T19:37:22.946Z,2.35
2022-08-23T19:40:11.147Z,1.95
2022-08-23T19:43:00.413Z,2.05
2022-08-23T19:45:47.456Z,1.95
2022-08-23T19:48:34.993Z,2.10
2022-08-23T19:51:22.065Z,2.00
2022-08-23T19:54:11.547Z,2.13
2022-08-23T19:57:00.482Z,2.00
2022-08-23T19:59:47.642Z,2.10
2022-08-23T20:02:34.725Z,1.70
2022-08-23T20:05:22.274Z,2.00
2022-08-23T20:08:09.368Z,2.10
2022-08-23T20:10:57.560Z,2.22
2022-08-23T20:13:44.722Z,1.80
2022-08-23T20:16:32.650Z,2.25
2022-08-23T20:19:19.902Z,2.10
2022-08-23T20:22:25.390Z,2.08
2022-08-23T20:25:12.391Z,1.85
2022-08-23T20:27:59.612Z,2.22
2022-08-23T20:30:46.505Z,2.22
2022-08-23T20:33:33.516Z,2.20
2022-08-23T20:36:21.261Z,2.00
2022-08-23T20:39:08.475Z,1.80
2022-08-23T20:41:56.348Z,2.45
2022-08-23T20:44:43.338Z,2.33
2022-08-23T20:47:30.324Z,2.25
2022-08-23T20:50:17.385Z,1.90
2022-08-23T20:53:09.275Z,2.08
2022-08-23T20:55:56.939Z,1.90
2022-08-23T20:58:44.638Z,2.28
2022-08-23T21:01:31.671Z,2.40
2022-08-23T21:04:19.102Z,2.28
2022-08-23T21:07:06.594Z,2.50
2022-08-23T21:09:54.713Z,2.17
2022-08-23T21:12:41.638Z,1.83
2022-08-23T21:15:28.684Z,2.17
2022-08-23T21:18:15.580Z,2.42
2022-08-23T21:21:02.728Z,2.22
2022-08-23T21:23:49.774Z,2.03
2022-08-23T21:26:38.167Z,2.17
2022-08-23T21:29:25.226Z,2.28
2022-08-23T21:32:13.000Z,2.17
2022-08-23T21:35:00.161Z,2.20
2022-08-23T21:37:47.189Z,2.00
2022-08-23T21:40:34.391Z,2.30
2022-08-23T21:43:21.290Z,1.90
2022-08-23T21:46:08.393Z,2.13
2022-08-23T21:48:55.772Z,2.35
2022-08-23T21:51:43.992Z,2.00
2022-08-23T21:54:30.952Z,2.20
2022-08-23T21:57:17.886Z,2.10
2022-08-23T22:00:13.689Z,2.10
2022-08-23T22:03:00.797Z,2.28
2022-08-23T22:05:48.176Z,2.38
2022-08-23T22:08:35.101Z,2.28
2022-08-23T22:11:24.945Z,1.95
2022-08-23T22:14:15.357Z,2.13
2022-08-23T22:17:02.652Z,2.10
2022-08-23T22:19:51.517Z,2.15
2022-08-23T22:22:38.546Z,1.95
2022-08-23T22:25:26.175Z,2.63
2022-08-23T22:28:13.227Z,2.13
2022-08-23T22:31:01.781Z,2.05
2022-08-23T22:33:49.045Z,2.03
2022-08-23T22:36:36.536Z,1.90
2022-08-23T22:39:23.537Z,2.00
2022-08-23T22:42:10.445Z,2.17
2022-08-23T22:44:57.987Z,2.05
2022-08-23T22:47:45.304Z,2.20
2022-08-23T22:50:32.263Z,1.90
2022-08-23T22:53:19.743Z,1.92
2022-08-23T22:56:08.252Z,1.90
2022-08-23T22:58:55.763Z,1.90
2022-08-23T23:01:49.062Z,2.00
2022-08-23T23:04:36.233Z,2.10
2022-08-23T23:07:49.316Z,2.13
2022-08-23T23:10:36.675Z,2.17
2022-08-23T23:13:25.453Z,1.88
2022-08-23T23:16:17.989Z,2.20
2022-08-23T23:19:24.068Z,1.90
2022-08-23T23:22:11.049Z,1.80
2022-08-23T23:25:01.775Z,2.45
2022-08-23T23:27:48.766Z,2.53
2022-08-23T23:30:36.732Z,1.95
2022-08-23T23:33:24.019Z,2.10
2022-08-23T23:36:11.441Z,2.17
2022-08-23T23:39:06.783Z,2.22
2022-08-23T23:41:54.356Z,2.05
2022-08-23T23:44:41.290Z,2.22
2022-08-23T23:47:28.303Z,2.00
2022-08-23T23:50:16.387Z,1.90
2022-08-23T23:53:03.360Z,2.00
2022-08-23T23:55:59.224Z,2.20
2022-08-23T23:58:46.785Z,2.35
